Airfield :
LOGIN :

Register | Disclaimer

   EN    FR    IT 

 










Legend :    VFR   Marginal VFR   IFR   Intensive IFR   Very Intensive IFR
Visi :
Ceiling :
>= 8 km
>= 3000ft
5 to 8 km
1000 to 3000 ft
1500m to 5 km
500 to 1000 ft
800 to 1500m
200 to 500 ft
< 800m
< 200 ft
Symbols :   Thunderstorms  Fog  Heavy snow  Heavy precipitations  Wind > 20 kt
SIGMETs :     Misc.  Thunderstorms  Icing  Turbulence  Mountain Waves  Volcanic Ashes






- Airport Elevation : -15 ft
- IATA code : RTM


EHRD - Rotterdam Zestienhoven

CURRENT METAR :
  • 311055Z AUTO 06015KT 020V100 9999 NSC 20/03 Q1023 NOSIG

EXPIRED METARs :
  • 311025Z AUTO 07015G26KT 020V110 9999 NSC 21/03 Q1023 NOSIG
  • 310955Z AUTO 08014KT 050V110 9999 NSC 20/04 Q1023 NOSIG
  • 310925Z AUTO 07017KT 050V110 9999 NSC 20/04 Q1023 NOSIG
  • 310855Z AUTO 07013KT 030V120 9999 NCD 19/05 Q1023 NOSIG
  • 310825Z AUTO 06014KT 030V090 9999 NCD 19/05 Q1024 NOSIG
  • 310755Z AUTO 08009KT 040V110 9999 NSC 19/06 Q1024 NOSIG

TAF TAF EHRD
Valid from the 31 at 06:00 until the 01 at 12:00 UTC


310450Z 3106/0112 06007KT CAVOK
BECMG 3107/3110 08014KT
BECMG 3119/3122 06008KT



MET'MAP, your aeronautical weather chart ! - Copyright ORBIFLY December 2007 - Disclaimer

ORBIFLY MET'MAP TEAM :

Programming & Development : Alexandra Zaïnal
Concept & original design : Baudouin d'Aumeries
Assistance for programming : Marc-Olivier Méhu
Technical & hardware support : Manuel Goepfert

Contact : metmap@orbifly.com




SOURCES & CREDITS :

   NOAA